Time;durP1;ratioP1;P1;durP2;ratioP2;P2;SDS_P1;SDS_P2;PMS_P1;PMS_P2;Temp;Humidity;BMP_temperature;BMP_pressure;BME280_temperature;BME280_humidity;BME280_pressure;Samples;Min_cycle;Max_cycle;Signal;HPM_P1;HPM_P2
2021/06/20 00:00:22;;;;;;;3.50;3.20;;;;;;;18.78;70.00;100402.50;5052742;28;20033;-89
2021/06/20 00:02:51;;;;;;;3.88;3.45;;;;;;;18.78;70.05;100408.00;5046254;28;20041;-86
2021/06/20 00:05:19;;;;;;;3.83;3.40;;;;;;;18.74;70.50;100407.50;5065202;28;20051;-89
2021/06/20 00:07:46;;;;;;;4.00;3.30;;;;;;;18.72;70.41;100411.47;5075143;28;20036;-89
2021/06/20 00:10:16;;;;;;;3.72;3.33;;;;;;;18.72;70.19;100408.72;5075030;28;20036;-87
2021/06/20 00:12:42;;;;;;;3.58;3.15;;;;;;;18.54;71.90;100407.16;5077579;28;20125;-86
2021/06/20 00:15:12;;;;;;;5.30;3.92;;;;;;;18.43;72.80;100407.59;5062031;28;20048;-87
2021/06/20 00:17:39;;;;;;;5.13;3.63;;;;;;;18.36;72.98;100403.91;5081326;28;20045;-88
2021/06/20 00:20:07;;;;;;;4.13;3.10;;;;;;;18.31;73.27;100411.78;5034449;28;20036;-87
2021/06/20 00:22:33;;;;;;;4.50;3.50;;;;;;;18.24;73.21;100399.88;5037568;28;20045;-86
2021/06/20 00:24:59;;;;;;;3.63;3.33;;;;;;;18.19;73.96;100405.91;5054548;28;20640;-87
2021/06/20 00:27:26;;;;;;;4.35;3.75;;;;;;;18.11;74.05;100389.53;5063868;28;20469;-87
2021/06/20 00:29:53;;;;;;;5.03;3.83;;;;;;;18.00;74.69;100407.22;5065955;28;20104;-87
2021/06/20 00:32:19;;;;;;;4.68;3.85;;;;;;;18.05;74.50;100404.78;5063068;28;20234;-85
2021/06/20 00:34:45;;;;;;;4.78;3.97;;;;;;;18.11;74.38;100400.47;5072463;28;20136;-87
2021/06/20 00:37:11;;;;;;;4.78;3.70;;;;;;;18.08;74.69;100401.69;5067463;28;20119;-87
2021/06/20 00:39:37;;;;;;;5.93;3.78;;;;;;;17.99;74.85;100413.75;5091923;28;20071;-86
2021/06/20 00:42:03;;;;;;;5.18;3.58;;;;;;;17.86;75.55;100407.16;5067483;28;20044;-88
2021/06/20 00:44:29;;;;;;;5.82;4.03;;;;;;;17.84;75.31;100404.56;5065529;28;20075;-89
2021/06/20 00:46:55;;;;;;;6.55;4.00;;;;;;;17.90;75.19;100409.34;5065941;28;20043;-86
2021/06/20 00:49:21;;;;;;;6.55;4.00;;;;;;;17.88;75.75;100408.69;5086892;28;20037;-88
2021/06/20 00:51:48;;;;;;;5.13;4.25;;;;;;;17.85;75.73;100411.78;5057569;28;20134;-87
2021/06/20 00:54:15;;;;;;;5.57;3.80;;;;;;;17.82;75.98;100406.66;5054254;28;20052;-88
2021/06/20 00:56:41;;;;;;;4.40;4.00;;;;;;;17.78;76.16;100405.31;5047884;28;20048;-88
2021/06/20 00:59:08;;;;;;;4.38;3.97;;;;;;;17.72;76.59;100397.78;5059000;28;20042;-85
2021/06/20 01:01:34;;;;;;;8.98;4.05;;;;;;;17.63;76.38;100397.00;5070566;28;20032;-89
2021/06/20 01:04:00;;;;;;;6.72;4.32;;;;;;;17.58;76.45;100389.28;5052111;28;20135;-86
2021/06/20 01:06:27;;;;;;;6.65;4.47;;;;;;;17.65;76.54;100405.84;5066233;28;20071;-84
2021/06/20 01:08:54;;;;;;;5.65;3.95;;;;;;;17.60;75.83;100403.66;5049768;28;20044;-85
2021/06/20 01:11:21;;;;;;;4.25;3.58;;;;;;;17.69;75.19;100411.81;5067847;28;20064;-85
2021/06/20 01:13:47;;;;;;;5.43;3.47;;;;;;;17.70;75.23;100408.06;5063473;28;20251;-87
2021/06/20 01:16:14;;;;;;;5.22;3.72;;;;;;;17.66;75.37;100412.16;5057887;28;20033;-86
2021/06/20 01:18:40;;;;;;;7.05;4.18;;;;;;;17.58;76.09;100416.63;5071195;28;20045;-85
2021/06/20 01:21:07;;;;;;;9.88;4.78;;;;;;;17.50;76.98;100424.88;5065168;28;20060;-84
2021/06/20 01:23:34;;;;;;;4.70;4.30;;;;;;;17.38;76.94;100409.91;5069243;28;20052;-87
2021/06/20 01:26:00;;;;;;;5.50;4.85;;;;;;;17.39;77.04;100419.81;5057922;28;20140;-86
2021/06/20 01:28:29;;;;;;;6.95;5.40;;;;;;;17.34;76.97;100417.59;5045609;28;20048;-87
2021/06/20 01:30:59;;;;;;;7.25;5.25;;;;;;;17.30;77.51;100415.41;5064412;28;20036;-88
2021/06/20 01:33:27;;;;;;;8.32;5.70;;;;;;;17.28;77.73;100415.56;5062180;28;20036;-85
2021/06/20 01:35:54;;;;;;;7.65;5.60;;;;;;;17.31;77.38;100415.22;5080473;28;20555;-85
2021/06/20 01:38:20;;;;;;;9.02;6.03;;;;;;;17.32;77.62;100418.81;5053692;28;20544;-86
2021/06/20 01:40:47;;;;;;;7.05;5.70;;;;;;;17.37;77.15;100430.09;5061755;28;20076;-86
2021/06/20 01:43:13;;;;;;;6.25;5.65;;;;;;;17.45;76.70;100421.84;5056458;28;20048;-86
2021/06/20 01:45:40;;;;;;;6.82;5.43;;;;;;;17.47;76.97;100427.97;5054412;28;20097;-87
2021/06/20 01:48:07;;;;;;;6.85;6.13;;;;;;;17.53;76.92;100423.69;5042901;28;20051;-85
2021/06/20 01:50:34;;;;;;;10.32;6.10;;;;;;;17.51;76.90;100426.59;5056428;28;20044;-86
2021/06/20 01:53:15;;;;;;;6.25;5.60;;;;;;;17.46;77.30;100428.16;5065011;28;20231;-85
2021/06/20 01:55:43;;;;;;;6.38;5.78;;;;;;;17.45;77.17;100435.50;5059887;28;20052;-87
2021/06/20 01:58:12;;;;;;;6.20;5.55;;;;;;;17.49;76.92;100434.13;5064790;28;20495;-85
2021/06/20 02:00:41;;;;;;;6.03;4.93;;;;;;;17.50;76.47;100435.81;5052721;28;20041;-87
2021/06/20 02:03:09;;;;;;;6.78;5.82;;;;;;;17.54;76.40;100437.16;5063781;28;20116;-85
2021/06/20 02:05:36;;;;;;;5.65;5.10;;;;;;;17.57;76.07;100439.56;5035454;28;20037;-88
2021/06/20 02:08:02;;;;;;;5.35;4.85;;;;;;;17.62;75.61;100438.16;5083757;28;20072;-87
2021/06/20 02:10:28;;;;;;;5.10;4.70;;;;;;;17.68;75.52;100442.94;5016160;28;20032;-86
2021/06/20 02:12:54;;;;;;;6.03;5.43;;;;;;;17.72;75.36;100436.91;5077680;28;20100;-86
2021/06/20 02:15:22;;;;;;;6.15;5.55;;;;;;;17.76;75.32;100437.44;5059995;28;20072;-87
2021/06/20 02:17:48;;;;;;;6.75;5.00;;;;;;;17.71;75.61;100437.97;5065578;28;20072;-85
2021/06/20 02:20:17;;;;;;;5.65;5.15;;;;;;;17.74;75.53;100447.69;5068516;28;20041;-86
2021/06/20 02:22:45;;;;;;;5.78;5.25;;;;;;;17.78;75.19;100447.19;5068198;28;20060;-86
2021/06/20 02:25:14;;;;;;;5.00;4.07;;;;;;;17.88;74.22;100437.91;5067125;28;20021;-85
2021/06/20 02:27:41;;;;;;;6.72;4.35;;;;;;;17.92;74.25;100444.75;5071262;28;20032;-89
2021/06/20 02:30:08;;;;;;;5.95;4.47;;;;;;;18.00;73.15;100436.47;5074735;28;20057;-89
2021/06/20 02:32:35;;;;;;;4.70;4.30;;;;;;;18.07;73.16;100446.50;5080654;28;20032;-85
2021/06/20 02:35:00;;;;;;;4.68;4.28;;;;;;;18.16;72.58;100446.47;5046174;28;20417;-85
2021/06/20 02:37:27;;;;;;;4.95;4.47;;;;;;;18.25;72.54;100456.34;5052916;28;20029;-85
2021/06/20 02:39:54;;;;;;;5.40;4.90;;;;;;;18.25;72.67;100451.72;5053810;28;20157;-86
2021/06/20 02:42:19;;;;;;;4.88;4.07;;;;;;;18.34;71.89;100457.97;5069880;28;20028;-87
2021/06/20 02:44:46;;;;;;;5.10;4.60;;;;;;;18.34;71.92;100449.75;5070616;28;20039;-87
2021/06/20 02:47:12;;;;;;;5.43;4.15;;;;;;;18.44;71.29;100461.31;5062928;28;20043;-87
2021/06/20 02:49:39;;;;;;;4.55;4.18;;;;;;;18.52;71.06;100452.19;5048497;28;20063;-87
2021/06/20 02:52:06;;;;;;;4.20;3.80;;;;;;;18.51;70.92;100456.81;5066608;28;20032;-84
2021/06/20 02:54:32;;;;;;;4.68;3.78;;;;;;;18.56;70.87;100453.53;5071566;28;20067;-86
2021/06/20 02:56:59;;;;;;;4.78;3.83;;;;;;;18.71;70.45;100456.34;5078989;28;20086;-85
2021/06/20 02:59:25;;;;;;;6.13;4.30;;;;;;;18.84;70.09;100462.06;5075646;28;20021;-87
2021/06/20 03:01:51;;;;;;;4.93;4.43;;;;;;;18.99;69.92;100449.22;5078845;28;20041;-86
2021/06/20 03:04:17;;;;;;;5.13;4.50;;;;;;;19.18;69.26;100458.78;5074793;28;20070;-85
2021/06/20 03:06:44;;;;;;;5.65;4.80;;;;;;;19.31;68.89;100451.84;5088557;28;20028;-86
2021/06/20 03:09:10;;;;;;;6.13;4.60;;;;;;;19.38;68.36;100453.63;5076405;28;20075;-86
2021/06/20 03:11:44;;;;;;;4.95;4.47;;;;;;;19.49;68.41;100444.06;5074985;28;20036;-87
2021/06/20 03:14:13;;;;;;;4.60;4.20;;;;;;;19.59;68.24;100449.25;5083585;28;20040;-88
2021/06/20 03:16:39;;;;;;;4.95;4.53;;;;;;;19.64;67.53;100446.84;5082894;28;20033;-87
2021/06/20 03:19:06;;;;;;;4.70;4.30;;;;;;;19.79;67.00;100439.44;5104109;22;20081;-87
2021/06/20 03:21:33;;;;;;;4.93;4.40;;;;;;;19.91;66.86;100442.53;5102634;28;20016;-87
2021/06/20 03:24:00;;;;;;;5.28;4.38;;;;;;;20.03;66.72;100446.47;5097507;28;20113;-87
2021/06/20 03:26:27;;;;;;;4.32;4.03;;;;;;;20.34;66.37;100439.84;5089983;28;20031;-87
2021/06/20 03:28:52;;;;;;;4.90;4.50;;;;;;;20.38;65.77;100450.25;5107021;28;20055;-86
2021/06/20 03:31:18;;;;;;;4.93;4.50;;;;;;;20.48;65.83;100448.03;5086809;28;20103;-87
2021/06/20 03:33:45;;;;;;;5.45;4.95;;;;;;;20.58;65.56;100450.44;5095271;28;20158;-88
2021/06/20 03:36:12;;;;;;;5.53;4.93;;;;;;;20.69;65.68;100451.81;5106817;28;20040;-87
2021/06/20 03:38:39;;;;;;;5.93;5.43;;;;;;;20.85;65.06;100443.31;5102658;28;20040;-87
2021/06/20 03:41:07;;;;;;;5.65;4.82;;;;;;;20.90;64.89;100439.97;5095593;28;20032;-87
2021/06/20 03:43:33;;;;;;;5.47;4.97;;;;;;;21.13;64.59;100442.44;5097228;28;20079;-87
2021/06/20 03:45:59;;;;;;;5.25;4.72;;;;;;;21.25;64.02;100451.00;5082397;28;20064;-88
2021/06/20 03:48:26;;;;;;;5.57;5.13;;;;;;;21.36;63.34;100454.09;5095833;28;20036;-87
2021/06/20 03:50:52;;;;;;;5.13;4.70;;;;;;;21.65;62.72;100446.63;5070649;28;20066;-88
2021/06/20 03:53:19;;;;;;;5.63;5.03;;;;;;;21.73;63.14;100443.69;5070413;28;20028;-86
2021/06/20 03:55:45;;;;;;;5.55;4.95;;;;;;;22.06;62.33;100441.06;5096828;28;20052;-88
2021/06/20 03:58:12;;;;;;;5.13;4.72;;;;;;;22.46;61.07;100443.09;5100211;28;20103;-85
2021/06/20 04:00:38;;;;;;;6.18;5.00;;;;;;;22.61;61.00;100444.59;5111960;28;20236;-87
2021/06/20 04:03:05;;;;;;;5.88;5.10;;;;;;;22.69;60.63;100440.78;5078412;28;20169;-86
2021/06/20 04:05:33;;;;;;;5.07;4.60;;;;;;;23.10;59.66;100439.75;5079354;28;20036;-88
2021/06/20 04:08:00;;;;;;;5.15;4.75;;;;;;;23.29;58.82;100449.94;5087530;28;20043;-86
2021/06/20 04:10:27;;;;;;;6.65;5.05;;;;;;;23.58;58.08;100437.53;5090621;28;20055;-88
2021/06/20 04:12:54;;;;;;;4.70;4.20;;;;;;;23.87;57.66;100437.25;5098338;28;20040;-86
2021/06/20 04:15:21;;;;;;;5.63;4.22;;;;;;;24.14;56.83;100436.06;5062955;28;20044;-89
2021/06/20 04:17:47;;;;;;;5.05;4.57;;;;;;;23.72;58.16;100443.03;5180217;22;20052;-86
2021/06/20 04:20:14;;;;;;;4.75;4.13;;;;;;;23.90;57.49;100439.56;5055470;28;20112;-88
2021/06/20 04:22:43;;;;;;;5.25;4.70;;;;;;;24.19;56.46;100427.09;5033826;28;20045;-85
2021/06/20 04:25:14;;;;;;;5.95;4.22;;;;;;;24.30;57.16;100426.38;5060130;28;20183;-90
2021/06/20 04:27:46;;;;;;;5.03;4.50;;;;;;;24.44;56.10;100441.00;5033833;28;20056;-88
2021/06/20 04:30:14;;;;;;;5.22;4.68;;;;;;;24.47;56.91;100435.03;5127999;23;20051;-88
2021/06/20 04:32:43;;;;;;;5.00;4.50;;;;;;;24.68;55.96;100431.03;5097480;28;20065;-88
2021/06/20 04:35:11;;;;;;;4.85;4.45;;;;;;;25.00;55.69;100429.91;5098042;28;20056;-87
2021/06/20 04:37:40;;;;;;;5.00;4.45;;;;;;;25.08;55.22;100437.06;5148355;22;20058;-88
2021/06/20 04:40:08;;;;;;;4.47;4.10;;;;;;;25.53;54.16;100436.88;5059619;28;20075;-87
2021/06/20 04:42:37;;;;;;;4.35;3.95;;;;;;;25.53;54.40;100431.34;5080429;28;20078;-90
2021/06/20 04:45:07;;;;;;;5.15;4.22;;;;;;;25.92;53.90;100429.16;5084857;28;20048;-88
2021/06/20 04:47:36;;;;;;;5.90;5.35;;;;;;;25.93;53.32;100422.56;5048437;28;20064;-87
2021/06/20 04:50:03;;;;;;;6.68;4.95;;;;;;;26.36;52.85;100421.50;5080542;28;20094;-89
2021/06/20 04:52:31;;;;;;;5.40;4.47;;;;;;;26.13;52.22;100423.13;5064273;28;20619;-88
2021/06/20 04:54:58;;;;;;;6.60;5.60;;;;;;;26.59;52.09;100427.19;5084232;28;20032;-88
2021/06/20 04:57:27;;;;;;;6.47;5.88;;;;;;;26.62;51.44;100428.59;5083802;28;20052;-87
2021/06/20 04:59:57;;;;;;;5.80;5.25;;;;;;;27.14;50.66;100423.28;5065587;28;20176;-87
2021/06/20 05:02:24;;;;;;;5.95;4.72;;;;;;;27.35;50.57;100435.69;5070115;28;20040;-90
2021/06/20 05:04:52;;;;;;;4.07;3.70;;;;;;;26.86;50.53;100426.72;5083910;28;20049;-87
2021/06/20 05:07:19;;;;;;;4.43;4.03;;;;;;;27.49;49.84;100431.56;5068066;28;20048;-87
2021/06/20 05:09:46;;;;;;;4.57;4.10;;;;;;;27.69;49.76;100433.13;5054216;28;20166;-89
2021/06/20 05:12:13;;;;;;;4.63;3.83;;;;;;;27.92;48.61;100430.31;5069217;28;20048;-88
2021/06/20 05:14:45;;;;;;;4.72;3.20;;;;;;;27.94;47.64;100422.59;5109903;22;20048;-88
2021/06/20 05:17:14;;;;;;;3.47;3.17;;;;;;;28.04;47.45;100425.53;5039959;28;20489;-89
2021/06/20 05:22:38;;;;;;;3.80;3.15;;;;;;;28.09;46.87;100425.66;4950282;28;20297;-88
2021/06/20 05:25:05;;;;;;;4.68;3.10;;;;;;;28.42;45.87;100424.09;4930736;29;20047;-86
2021/06/20 05:27:33;;;;;;;4.07;3.67;;;;;;;28.77;46.05;100436.94;4919681;29;20124;-86
2021/06/20 05:29:59;;;;;;;4.18;3.50;;;;;;;29.25;44.93;100432.72;4923706;28;20113;-84
2021/06/20 05:32:25;;;;;;;3.25;2.95;;;;;;;29.37;44.39;100419.56;4881085;29;20041;-82
2021/06/20 05:34:51;;;;;;;3.58;3.28;;;;;;;29.61;44.25;100430.50;4885679;29;20045;-83
2021/06/20 05:37:17;;;;;;;3.72;3.30;;;;;;;29.50;43.99;100430.31;4917789;29;20116;-85
2021/06/20 05:39:43;;;;;;;3.50;3.20;;;;;;;29.73;43.76;100434.84;4919339;29;20049;-82
2021/06/20 05:42:09;;;;;;;3.45;3.20;;;;;;;29.77;43.67;100429.59;4920951;29;20112;-84
2021/06/20 05:44:35;;;;;;;3.58;3.00;;;;;;;29.86;42.99;100422.47;4891607;29;20071;-81
2021/06/20 05:47:02;;;;;;;3.50;3.17;;;;;;;29.98;43.21;100425.09;4894468;29;20040;-84
2021/06/20 05:49:39;;;;;;;3.85;3.45;;;;;;;30.40;42.36;100421.69;5106269;27;20408;-85
2021/06/20 05:52:05;;;;;;;4.25;3.20;;;;;;;30.60;41.78;100423.84;5079414;28;20052;-83
2021/06/20 05:54:31;;;;;;;3.35;3.00;;;;;;;31.16;41.55;100421.56;5089236;28;20040;-84
2021/06/20 05:56:57;;;;;;;3.38;3.05;;;;;;;31.54;40.63;100419.56;5085719;28;20032;-83
2021/06/20 05:59:23;;;;;;;4.30;2.90;;;;;;;31.80;40.52;100429.75;5090341;28;20043;-87
2021/06/20 06:01:49;;;;;;;4.45;2.75;;;;;;;32.45;38.38;100423.84;5089774;28;20091;-84
2021/06/20 06:04:15;;;;;;;3.72;2.90;;;;;;;31.99;39.26;100415.31;5090985;28;20067;-84
2021/06/20 06:06:41;;;;;;;2.75;2.42;;;;;;;32.38;38.40;100416.53;5083741;28;20040;-84
2021/06/20 06:09:07;;;;;;;2.45;2.25;;;;;;;32.26;39.00;100415.94;5083897;28;20024;-85
2021/06/20 06:11:33;;;;;;;2.65;2.40;;;;;;;32.87;37.45;100421.66;5086532;28;20615;-82
2021/06/20 06:13:59;;;;;;;2.72;2.42;;;;;;;33.18;37.10;100416.03;5084197;28;20040;-84
2021/06/20 06:16:25;;;;;;;2.60;2.40;;;;;;;32.75;36.61;100414.63;5084435;28;20533;-85
2021/06/20 06:18:52;;;;;;;2.30;2.10;;;;;;;33.01;37.34;100415.50;5066451;28;20045;-85
2021/06/20 06:21:18;;;;;;;3.38;2.00;;;;;;;32.77;35.71;100416.03;5065138;28;20542;-84
2021/06/20 06:23:44;;;;;;;4.35;2.10;;;;;;;32.79;36.07;100418.56;5045622;28;20094;-85
2021/06/20 06:26:11;;;;;;;2.47;1.73;;;;;;;32.41;36.19;100424.41;5077705;28;20149;-85
2021/06/20 06:28:38;;;;;;;2.65;1.70;;;;;;;32.46;34.95;100428.34;5081001;28;20110;-84
2021/06/20 06:31:05;;;;;;;1.88;1.70;;;;;;;32.45;35.56;100418.25;5094621;28;20116;-86
2021/06/20 06:33:33;;;;;;;1.90;1.60;;;;;;;32.53;34.87;100426.09;5069133;28;20052;-86
2021/06/20 06:36:00;;;;;;;1.77;1.67;;;;;;;32.99;34.46;100412.16;5042660;28;20036;-85
2021/06/20 06:38:31;;;;;;;2.80;1.65;;;;;;;33.03;34.41;100421.66;5099136;28;20041;-83
2021/06/20 06:40:59;;;;;;;1.70;1.60;;;;;;;33.49;34.22;100411.22;5049137;28;20048;-85
2021/06/20 06:43:25;;;;;;;2.47;1.60;;;;;;;33.68;34.10;100419.00;5092130;28;20041;-82
2021/06/20 06:45:52;;;;;;;2.53;1.70;;;;;;;33.80;33.11;100428.78;5076167;28;20036;-85
2021/06/20 06:48:19;;;;;;;1.92;1.50;;;;;;;33.82;32.74;100417.25;5082189;28;20059;-82
2021/06/20 06:50:46;;;;;;;1.50;1.40;;;;;;;33.83;33.11;100417.00;5083674;28;20052;-84
2021/06/20 06:53:12;;;;;;;3.08;1.50;;;;;;;33.29;33.53;100416.88;5085679;28;20037;-83
2021/06/20 06:55:38;;;;;;;2.03;1.65;;;;;;;34.33;32.34;100415.03;5078459;28;20055;-84
2021/06/20 06:58:04;;;;;;;1.63;1.52;;;;;;;34.85;31.52;100409.06;5090191;28;20043;-83
2021/06/20 07:00:30;;;;;;;2.42;1.50;;;;;;;35.09;31.33;100421.25;5064518;28;20040;-83
2021/06/20 07:02:57;;;;;;;1.60;1.50;;;;;;;35.87;30.15;100410.81;5065674;28;20370;-83
2021/06/20 07:05:25;;;;;;;1.42;1.40;;;;;;;35.81;30.59;100415.69;5036640;28;20044;-82
2021/06/20 07:07:51;;;;;;;2.55;1.58;;;;;;;36.21;29.33;100414.34;5066793;28;20532;-83
2021/06/20 07:10:17;;;;;;;2.13;1.48;;;;;;;35.43;30.32;100415.56;5068229;28;20137;-82
2021/06/20 07:12:44;;;;;;;1.65;1.45;;;;;;;35.52;30.60;100417.75;5070583;28;20060;-83
2021/06/20 07:15:12;;;;;;;1.50;1.40;;;;;;;35.82;29.99;100408.94;5064757;28;20041;-83
2021/06/20 07:17:38;;;;;;;1.80;1.50;;;;;;;36.06;30.02;100413.72;5070474;28;20055;-84
2021/06/20 07:20:07;;;;;;;1.80;1.50;;;;;;;36.42;28.56;100414.00;5066153;28;20106;-83
2021/06/20 07:22:34;;;;;;;2.10;1.75;;;;;;;36.56;29.02;100408.47;5070534;28;20080;-85
2021/06/20 07:25:00;;;;;;;2.20;1.50;;;;;;;36.20;29.22;100401.41;5067146;28;20036;-85
2021/06/20 07:27:26;;;;;;;1.70;1.60;;;;;;;35.40;30.05;100416.16;5074404;28;20183;-82
2021/06/20 07:29:52;;;;;;;1.90;1.65;;;;;;;36.11;29.13;100414.47;5061353;28;20037;-85
2021/06/20 07:32:19;;;;;;;1.98;1.73;;;;;;;36.15;29.39;100412.72;5059586;28;20039;-86
2021/06/20 07:34:45;;;;;;;4.40;1.90;;;;;;;36.09;29.90;100405.50;5073628;28;20039;-83
2021/06/20 07:37:11;;;;;;;1.90;1.80;;;;;;;35.59;30.39;100402.19;5071015;28;20048;-85
2021/06/20 07:39:38;;;;;;;1.88;1.77;;;;;;;35.87;29.85;100408.00;5076083;28;20037;-86
2021/06/20 07:42:04;;;;;;;1.73;1.63;;;;;;;36.73;28.76;100399.47;5065410;28;20033;-86
2021/06/20 07:44:30;;;;;;;1.80;1.70;;;;;;;35.53;29.90;100402.53;5073244;28;20040;-85
2021/06/20 07:46:56;;;;;;;3.45;1.70;;;;;;;35.63;29.98;100403.25;5043920;28;20033;-85
2021/06/20 07:49:23;;;;;;;1.73;1.60;;;;;;;35.72;29.68;100397.78;5067392;28;20570;-85
2021/06/20 07:51:50;;;;;;;1.65;1.60;;;;;;;36.22;29.22;100389.81;5071135;28;20056;-84
2021/06/20 07:54:17;;;;;;;1.50;1.40;;;;;;;36.51;29.03;100400.97;5077252;28;20051;-84
2021/06/20 07:56:45;;;;;;;1.55;1.52;;;;;;;36.08;28.59;100403.81;5065779;28;20592;-84
2021/06/20 07:59:14;;;;;;;2.00;1.83;;;;;;;36.14;27.88;100402.63;5053708;28;20309;-84
2021/06/20 08:01:42;;;;;;;1.67;1.50;;;;;;;36.88;26.79;100390.75;5076537;28;20037;-83
2021/06/20 08:04:09;;;;;;;1.60;1.50;;;;;;;36.76;27.82;100387.59;5051446;28;20044;-85
2021/06/20 08:06:35;;;;;;;1.83;1.60;;;;;;;36.93;27.64;100382.19;5083853;28;20040;-83
2021/06/20 08:09:02;;;;;;;1.60;1.50;;;;;;;35.74;29.08;100382.28;5066585;28;20071;-85
2021/06/20 08:11:32;;;;;;;1.70;1.60;;;;;;;35.81;29.11;100386.72;5072572;28;20036;-83
2021/06/20 08:13:59;;;;;;;1.55;1.52;;;;;;;36.73;28.23;100385.38;5052241;28;20041;-84
2021/06/20 08:16:27;;;;;;;2.35;1.73;;;;;;;36.62;28.48;100385.56;5068975;28;20469;-84
2021/06/20 08:18:54;;;;;;;1.65;1.55;;;;;;;37.22;28.05;100381.13;5053080;28;20017;-84
2021/06/20 08:21:23;;;;;;;1.88;1.70;;;;;;;37.59;27.62;100381.00;5068808;28;20402;-85
2021/06/20 08:23:50;;;;;;;2.08;1.98;;;;;;;37.76;26.96;100390.78;5063672;28;20037;-84
2021/06/20 08:26:19;;;;;;;2.20;2.00;;;;;;;37.62;27.79;100390.78;5073072;28;20036;-84
2021/06/20 08:28:46;;;;;;;1.80;1.70;;;;;;;36.65;28.39;100389.75;5091562;28;20104;-85
2021/06/20 08:31:14;;;;;;;1.70;1.63;;;;;;;37.49;27.25;100389.66;5075632;28;20060;-84
2021/06/20 08:33:43;;;;;;;1.80;1.70;;;;;;;37.30;27.65;100386.03;5060206;28;20104;-85
2021/06/20 08:36:10;;;;;;;1.98;1.80;;;;;;;38.26;26.75;100388.84;5074380;28;20029;-85
2021/06/20 08:38:38;;;;;;;1.80;1.70;;;;;;;37.62;27.48;100377.50;5059313;28;20040;-86
2021/06/20 08:41:06;;;;;;;2.28;2.17;;;;;;;38.28;26.64;100391.34;5061865;28;20012;-85
2021/06/20 08:43:34;;;;;;;2.42;1.60;;;;;;;39.55;25.31;100393.72;5058117;28;20040;-84
2021/06/20 08:52:08;;;;;;;1.73;1.63;;;;;;;38.51;26.22;100378.13;5636275;22;20053;-84
2021/06/20 08:54:37;;;;;;;1.50;1.50;;;;;;;38.79;26.31;100378.78;5025034;28;20101;-85
2021/06/20 08:57:08;;;;;;;2.92;1.73;;;;;;;39.58;25.18;100378.09;5028426;28;20047;-87
2021/06/20 08:59:35;;;;;;;1.60;1.50;;;;;;;39.88;24.72;100376.34;5031111;28;20045;-85
2021/06/20 09:02:03;;;;;;;1.70;1.60;;;;;;;38.66;25.86;100357.09;4971585;28;20033;-84
2021/06/20 09:04:36;;;;;;;2.35;1.77;;;;;;;38.29;26.55;100359.97;5027473;28;20041;-84
2021/06/20 09:07:04;;;;;;;1.60;1.50;;;;;;;38.23;26.44;100360.38;4992115;28;20072;-83
2021/06/20 09:09:36;;;;;;;3.22;1.60;;;;;;;38.63;25.84;100352.09;5020917;28;20050;-83
2021/06/20 09:12:12;;;;;;;1.60;1.50;;;;;;;39.18;24.99;100360.25;4998330;28;20052;-84
2021/06/20 09:14:47;;;;;;;1.70;1.60;;;;;;;39.46;24.17;100358.91;5020171;28;20045;-83
2021/06/20 09:17:30;;;;;;;1.60;1.50;;;;;;;40.44;23.73;100357.59;4985919;28;20104;-87
2021/06/20 09:19:59;;;;;;;1.67;1.30;;;;;;;39.69;24.62;100350.34;5001079;28;20038;-84
2021/06/20 09:22:31;;;;;;;1.67;1.58;;;;;;;39.40;24.97;100354.53;5019077;28;20072;-86
2021/06/20 09:25:08;;;;;;;1.83;1.65;;;;;;;38.83;26.06;100340.25;5012421;28;20121;-86
2021/06/20 09:27:36;;;;;;;1.45;1.40;;;;;;;39.89;24.95;100346.84;5013748;28;20550;-85
2021/06/20 09:30:13;;;;;;;1.75;1.42;;;;;;;39.36;24.53;100347.88;5001131;28;20435;-85
2021/06/20 09:32:55;;;;;;;1.40;1.40;;;;;;;38.71;24.41;100342.81;5001449;28;20042;-85
2021/06/20 09:35:23;;;;;;;1.20;1.20;;;;;;;38.20;25.08;100325.13;4995850;28;20149;-87
2021/06/20 09:37:51;;;;;;;1.50;1.33;;;;;;;38.15;25.27;100341.38;5019208;28;20034;-84
2021/06/20 09:40:18;;;;;;;1.58;1.40;;;;;;;39.26;23.99;100331.19;5011281;28;20034;-83
2021/06/20 09:42:44;;;;;;;1.50;1.40;;;;;;;40.22;23.32;100318.06;5012292;28;20076;-85
2021/06/20 09:45:11;;;;;;;1.58;1.48;;;;;;;39.63;23.99;100324.13;5018783;28;20069;-85
2021/06/20 09:47:41;;;;;;;1.60;1.50;;;;;;;39.36;24.89;100330.06;5001749;28;20464;-84
2021/06/20 09:50:11;;;;;;;1.60;1.50;;;;;;;39.59;24.71;100333.63;5019325;28;20478;-84
2021/06/20 09:52:38;;;;;;;2.35;1.40;;;;;;;40.31;24.37;100316.09;5013722;28;20045;-84
2021/06/20 09:55:12;;;;;;;1.83;1.73;;;;;;;39.14;24.95;100311.16;5024876;28;20021;-83
2021/06/20 09:57:44;;;;;;;1.60;1.50;;;;;;;38.45;25.57;100312.41;4996963;28;20287;-85
2021/06/20 10:00:11;;;;;;;;;;;;;;;38.76;25.83;100314.41;5010863;28;20034;-83
2021/06/20 10:02:44;;;;;;;1.80;1.60;;;;;;;39.73;24.49;100311.69;5014087;28;19929;-82
2021/06/20 10:05:11;;;;;;;1.52;1.42;;;;;;;38.82;24.58;100304.66;5017567;28;20033;-83
2021/06/20 10:07:40;;;;;;;1.85;1.40;;;;;;;38.73;24.82;100312.25;5018200;28;20097;-84
2021/06/20 10:10:09;;;;;;;3.35;1.60;;;;;;;39.77;23.88;100307.03;5016275;28;20590;-83
2021/06/20 10:12:37;;;;;;;1.45;1.35;;;;;;;39.68;24.45;100306.19;5014116;28;20041;-82
2021/06/20 10:15:11;;;;;;;1.48;1.38;;;;;;;39.05;25.18;100303.47;4983724;28;20045;-85
2021/06/20 10:17:41;;;;;;;1.55;1.42;;;;;;;39.03;25.53;100310.59;5013132;28;20054;-83
2021/06/20 10:20:09;;;;;;;1.95;1.50;;;;;;;39.19;25.12;100299.69;5004967;28;20658;-83
2021/06/20 10:22:49;;;;;;;2.03;1.50;;;;;;;39.54;24.32;100304.31;5026798;28;20042;-82
2021/06/20 10:25:42;;;;;;;1.60;1.50;;;;;;;38.89;25.48;100296.56;5044737;28;20041;-82
2021/06/20 10:28:12;;;;;;;2.95;1.90;;;;;;;40.07;24.29;100282.56;5006676;28;20034;-84
2021/06/20 10:30:41;;;;;;;1.50;1.40;;;;;;;39.60;24.53;100296.47;5010116;28;20037;-85
2021/06/20 10:33:13;;;;;;;1.60;1.50;;;;;;;40.27;24.27;100283.91;5024728;28;20062;-85
2021/06/20 10:35:40;;;;;;;2.08;1.75;;;;;;;40.70;24.09;100283.00;5009888;28;20096;-85
2021/06/20 10:38:07;;;;;;;1.55;1.50;;;;;;;39.24;24.94;100276.91;5021061;28;20080;-84
2021/06/20 10:40:45;;;;;;;1.92;1.67;;;;;;;37.71;26.87;100275.19;5036690;28;20415;-86
2021/06/20 10:43:17;;;;;;;2.15;1.60;;;;;;;37.99;26.88;100276.78;5037885;28;20044;-86
2021/06/20 10:45:46;;;;;;;1.73;1.63;;;;;;;38.56;26.23;100285.53;4996767;28;20050;-86
2021/06/20 10:48:23;;;;;;;2.13;1.60;;;;;;;39.63;24.81;100266.69;5018507;28;20041;-84
2021/06/20 10:50:51;;;;;;;2.20;1.98;;;;;;;40.18;24.61;100266.09;5050269;28;20100;-86
2021/06/20 10:53:18;;;;;;;1.88;1.77;;;;;;;38.70;26.46;100268.50;5025858;28;20053;-85
2021/06/20 10:55:49;;;;;;;2.08;1.70;;;;;;;39.71;24.88;100265.88;5029722;28;20049;-84
2021/06/20 10:58:41;;;;;;;1.98;1.65;;;;;;;39.95;24.97;100256.91;5023607;28;20057;-85
2021/06/20 11:01:10;;;;;;;1.77;1.50;;;;;;;38.65;26.32;100253.66;4985689;28;20049;-85
2021/06/20 11:03:37;;;;;;;2.10;1.73;;;;;;;39.24;25.85;100254.28;5029860;28;20065;-86
2021/06/20 11:06:14;;;;;;;3.50;1.88;;;;;;;38.97;26.22;100247.69;5009310;28;20554;-85
2021/06/20 11:09:00;;;;;;;1.98;1.80;;;;;;;37.82;26.76;100251.22;5025408;28;20041;-85
2021/06/20 11:11:32;;;;;;;3.15;1.95;;;;;;;38.09;26.54;100248.28;5010859;28;20070;-85
2021/06/20 11:13:58;;;;;;;2.05;1.95;;;;;;;37.96;26.39;100248.38;5022052;28;20038;-83
2021/06/20 11:16:32;;;;;;;2.22;1.70;;;;;;;38.11;26.37;100246.00;5027793;28;20048;-85
2021/06/20 11:19:06;;;;;;;2.75;1.80;;;;;;;38.36;26.27;100252.19;5011368;28;20041;-85
2021/06/20 11:21:36;;;;;;;2.03;1.85;;;;;;;39.40;24.62;100241.34;5008931;28;20107;-84
2021/06/20 11:24:05;;;;;;;2.05;1.83;;;;;;;38.46;26.45;100234.94;5032661;28;20041;-85
2021/06/20 11:26:33;;;;;;;4.47;2.08;;;;;;;38.30;26.53;100236.47;5025384;28;20057;-86
2021/06/20 11:29:06;;;;;;;2.75;1.90;;;;;;;37.86;26.75;100238.13;5026630;28;20065;-84
2021/06/20 11:31:52;;;;;;;2.10;1.90;;;;;;;38.24;26.85;100232.94;4989761;28;20084;-85
2021/06/20 11:34:20;;;;;;;2.25;2.05;;;;;;;37.31;27.28;100236.25;5007372;28;20042;-84
2021/06/20 11:36:48;;;;;;;1.90;1.80;;;;;;;36.63;28.03;100237.88;5042103;28;20042;-86